TimeMST,TemperatureF,Dew PointF,Humidity,Sea Level PressureIn,VisibilityMPH,Wind Direction,Wind SpeedMPH,Gust SpeedMPH,PrecipitationIn,Events,Conditions,WindDirDegrees,DateUTC
12:53 AM,32.0,19.0,59,30.11,10.0,SW,12.7,-,N/A,,Clear,230,2013-02-07 07:53:00
1:53 AM,32.0,17.1,54,30.12,10.0,SSW,10.4,-,N/A,,Clear,210,2013-02-07 08:53:00
2:53 AM,30.0,19.9,66,30.12,10.0,SW,12.7,-,N/A,,Clear,230,2013-02-07 09:53:00
3:53 AM,28.0,19.9,72,30.10,10.0,SW,10.4,-,N/A,,Clear,230,2013-02-07 10:53:00
4:53 AM,28.0,19.0,69,30.11,10.0,SW,12.7,-,N/A,,Clear,220,2013-02-07 11:53:00
5:53 AM,27.0,19.0,72,30.11,10.0,WSW,19.6,-,N/A,,Clear,250,2013-02-07 12:53:00
6:53 AM,28.0,18.0,66,30.10,10.0,WSW,15.0,-,N/A,,Clear,250,2013-02-07 13:53:00
7:53 AM,26.1,18.0,71,30.10,10.0,SSW,12.7,-,N/A,,Partly Cloudy,210,2013-02-07 14:53:00
8:53 AM,27.0,19.0,72,30.10,10.0,SSW,8.1,-,N/A,,Partly Cloudy,200,2013-02-07 15:53:00
9:53 AM,32.0,18.0,56,30.07,10.0,SW,10.4,-,N/A,,Partly Cloudy,220,2013-02-07 16:53:00
10:53 AM,35.1,18.0,50,30.07,10.0,Calm,Calm,-,N/A,,Scattered Clouds,0,2013-02-07 17:53:00
11:53 AM,37.9,18.0,45,30.05,10.0,NE,5.8,-,N/A,,Scattered Clouds,50,2013-02-07 18:53:00
12:53 PM,39.9,19.0,43,30.02,10.0,ENE,6.9,-,N/A,,Partly Cloudy,60,2013-02-07 19:53:00
1:53 PM,43.0,19.0,38,29.99,10.0,East,4.6,-,N/A,,Partly Cloudy,100,2013-02-07 20:53:00
2:53 PM,44.1,19.0,37,29.97,10.0,SSE,6.9,-,N/A,,Scattered Clouds,150,2013-02-07 21:53:00
3:53 PM,43.0,19.0,38,29.97,10.0,South,4.6,-,N/A,,Scattered Clouds,190,2013-02-07 22:53:00
4:53 PM,41.0,21.9,47,29.97,10.0,Calm,Calm,-,N/A,,Scattered Clouds,0,2013-02-07 23:53:00
5:53 PM,36.0,19.0,50,29.99,10.0,WNW,5.8,-,N/A,,Scattered Clouds,290,2013-02-08 00:53:00
6:53 PM,35.1,19.0,52,29.99,10.0,WSW,5.8,-,N/A,,Clear,250,2013-02-08 01:53:00
7:53 PM,36.0,17.1,46,29.98,10.0,WSW,10.4,-,N/A,,Clear,250,2013-02-08 02:53:00
8:53 PM,35.1,17.1,48,29.97,10.0,WSW,15.0,-,N/A,,Clear,250,2013-02-08 03:53:00
9:53 PM,34.0,17.1,50,29.96,10.0,WSW,8.1,-,N/A,,Clear,250,2013-02-08 04:53:00
10:53 PM,34.0,17.1,50,29.94,10.0,SW,10.4,-,N/A,,Clear,230,2013-02-08 05:53:00
11:53 PM,30.9,18.0,59,29.94,10.0,SW,9.2,-,N/A,,Clear,220,2013-02-08 06:53:00